createdAt,value
2022-08-30T00:01:34.329Z,2.60
2022-08-30T00:04:05.424Z,2.60
2022-08-30T00:06:34.288Z,2.50
2022-08-30T00:09:03.691Z,2.37
2022-08-30T00:11:31.536Z,2.40
2022-08-30T00:14:00.282Z,2.70
2022-08-30T00:16:28.278Z,2.35
2022-08-30T00:18:57.086Z,2.47
2022-08-30T00:21:27.136Z,2.50
2022-08-30T00:23:55.048Z,2.30
2022-08-30T00:26:27.613Z,2.47
2022-08-30T00:28:55.570Z,2.30
2022-08-30T00:31:23.415Z,2.60
2022-08-30T00:33:51.423Z,2.53
2022-08-30T00:36:19.248Z,2.63
2022-08-30T00:38:47.123Z,2.05
2022-08-30T00:41:15.185Z,2.63
2022-08-30T00:43:44.400Z,2.67
2022-08-30T00:46:12.132Z,3.40
2022-08-30T00:48:42.698Z,3.50
2022-08-30T00:51:12.998Z,3.70
2022-08-30T00:53:45.049Z,3.78
2022-08-30T00:56:14.406Z,3.60
2022-08-30T00:58:45.889Z,4.00
2022-08-30T01:01:14.147Z,3.35
2022-08-30T01:03:43.281Z,3.67
2022-08-30T01:06:11.618Z,3.55
2022-08-30T01:08:39.795Z,3.92
2022-08-30T01:11:07.600Z,4.22
2022-08-30T01:13:36.031Z,4.10
2022-08-30T01:16:06.328Z,3.90
2022-08-30T01:18:39.662Z,3.63
2022-08-30T01:21:15.592Z,3.72
2022-08-30T01:23:46.638Z,3.60
2022-08-30T01:26:17.330Z,3.50
2022-08-30T01:28:48.856Z,3.53
2022-08-30T01:31:17.154Z,3.40
2022-08-30T01:33:45.042Z,3.40
2022-08-30T01:36:14.052Z,3.35
2022-08-30T01:38:48.580Z,3.92
2022-08-30T01:41:19.701Z,3.75
2022-08-30T01:43:48.775Z,4.10
2022-08-30T01:46:18.695Z,4.20
2022-08-30T01:48:53.114Z,3.95
2022-08-30T01:51:23.622Z,4.25
2022-08-30T01:53:53.017Z,3.90
2022-08-30T01:56:20.966Z,4.03
2022-08-30T01:58:48.659Z,3.80
2022-08-30T02:01:19.769Z,4.27
2022-08-30T02:03:48.636Z,4.30
2022-08-30T02:06:19.339Z,4.70
2022-08-30T02:08:47.687Z,4.73
2022-08-30T02:11:18.048Z,4.90
2022-08-30T02:13:46.760Z,4.53
2022-08-30T02:16:16.813Z,5.03
2022-08-30T02:18:44.783Z,5.10
2022-08-30T02:21:13.979Z,5.20
2022-08-30T02:23:42.584Z,4.10
2022-08-30T02:26:11.244Z,4.22
2022-08-30T02:28:42.881Z,4.70
2022-08-30T02:31:20.765Z,4.35
2022-08-30T02:33:50.383Z,4.53
2022-08-30T02:36:19.170Z,4.80
2022-08-30T02:38:47.288Z,4.90
2022-08-30T02:41:15.247Z,5.20
2022-08-30T02:43:45.528Z,5.28
2022-08-30T02:46:14.389Z,5.63
2022-08-30T02:48:42.850Z,5.20
2022-08-30T02:51:12.456Z,5.57
2022-08-30T02:53:40.795Z,4.93
2022-08-30T02:56:08.798Z,4.95
2022-08-30T02:58:36.547Z,4.93
2022-08-30T03:01:06.577Z,5.00
2022-08-30T03:03:34.630Z,5.00
2022-08-30T03:06:03.778Z,5.20
2022-08-30T03:08:31.855Z,4.82
2022-08-30T03:11:00.005Z,5.10
2022-08-30T03:13:28.197Z,4.93
2022-08-30T03:15:56.203Z,5.00
2022-08-30T03:18:26.605Z,5.43
2022-08-30T03:20:55.104Z,4.88
2022-08-30T03:23:24.124Z,4.97
2022-08-30T03:25:53.433Z,4.90
2022-08-30T03:28:21.576Z,4.85
2022-08-30T03:30:50.170Z,4.90
2022-08-30T03:33:18.724Z,4.80
2022-08-30T03:35:51.054Z,4.50
2022-08-30T03:38:19.737Z,4.57
2022-08-30T03:40:48.380Z,4.93
2022-08-30T03:43:16.185Z,4.75
2022-08-30T03:45:44.957Z,4.97
2022-08-30T03:48:12.938Z,4.60
2022-08-30T03:50:41.556Z,4.90
2022-08-30T03:53:12.172Z,5.60
2022-08-30T03:55:39.958Z,6.13
2022-08-30T03:58:08.564Z,5.10
2022-08-30T04:00:36.344Z,5.32
2022-08-30T04:03:04.897Z,5.40
2022-08-30T04:05:32.883Z,6.22
2022-08-30T04:08:01.386Z,5.47
2022-08-30T04:10:34.943Z,5.65
2022-08-30T04:13:03.822Z,5.55
2022-08-30T04:15:31.596Z,6.00
2022-08-30T04:17:59.770Z,6.20
2022-08-30T04:20:27.504Z,5.50
2022-08-30T04:22:55.609Z,5.30
2022-08-30T04:25:23.402Z,5.50
2022-08-30T04:27:55.906Z,5.40
2022-08-30T04:30:23.740Z,5.82
2022-08-30T04:32:54.510Z,5.83
2022-08-30T04:35:26.605Z,6.30
2022-08-30T04:37:54.595Z,5.88
2022-08-30T04:40:23.246Z,5.53
2022-08-30T04:42:54.608Z,4.82
2022-08-30T04:45:23.209Z,5.18
2022-08-30T04:47:51.071Z,4.57
2022-08-30T04:50:20.992Z,5.00
2022-08-30T04:52:49.487Z,4.75
2022-08-30T04:55:20.231Z,4.25
2022-08-30T04:57:48.357Z,4.38
2022-08-30T05:00:20.651Z,4.38
2022-08-30T05:02:50.050Z,4.22
2022-08-30T05:05:35.995Z,4.78
2022-08-30T05:08:04.168Z,4.55
2022-08-30T05:10:32.091Z,4.80
2022-08-30T05:13:00.068Z,5.47
2022-08-30T05:15:31.435Z,5.10
2022-08-30T05:17:59.434Z,5.25
2022-08-30T05:20:27.911Z,5.10
2022-08-30T05:22:55.558Z,5.13
2022-08-30T05:25:26.145Z,5.00
2022-08-30T05:27:54.391Z,5.15
2022-08-30T05:30:24.387Z,4.90
2022-08-30T05:32:54.083Z,4.93
2022-08-30T05:35:25.774Z,4.60
2022-08-30T05:37:54.577Z,4.30
2022-08-30T05:40:23.894Z,4.03
2022-08-30T05:42:52.587Z,4.63
2022-08-30T05:45:20.573Z,4.28
2022-08-30T05:47:48.767Z,4.43
2022-08-30T05:50:17.926Z,4.38
2022-08-30T05:52:46.210Z,4.40
2022-08-30T05:55:15.011Z,4.05
2022-08-30T05:57:42.872Z,4.68
2022-08-30T06:00:14.339Z,4.80
2022-08-30T06:02:42.404Z,4.93
2022-08-30T06:05:14.168Z,4.35
2022-08-30T06:07:43.961Z,4.82
2022-08-30T06:10:12.276Z,4.25
2022-08-30T06:12:40.090Z,4.15
2022-08-30T06:15:08.933Z,3.85
2022-08-30T06:17:36.722Z,3.40
2022-08-30T06:20:04.915Z,3.50
2022-08-30T06:22:32.449Z,3.63
2022-08-30T06:25:01.528Z,3.00
2022-08-30T06:27:29.122Z,3.00
2022-08-30T06:29:56.893Z,2.60
2022-08-30T06:32:24.483Z,2.50
2022-08-30T06:34:52.013Z,2.70
2022-08-30T06:37:29.804Z,2.28
2022-08-30T06:39:58.396Z,2.63
2022-08-30T06:42:31.684Z,2.25
2022-08-30T06:44:59.524Z,2.27
2022-08-30T06:47:27.088Z,2.05
2022-08-30T06:49:54.646Z,1.70
2022-08-30T06:52:22.609Z,1.80
2022-08-30T06:54:50.561Z,1.70
2022-08-30T06:57:18.883Z,1.63
2022-08-30T06:59:47.786Z,1.52
2022-08-30T07:02:15.440Z,1.52
2022-08-30T07:04:43.077Z,1.50
2022-08-30T07:07:12.678Z,1.60
2022-08-30T07:09:43.136Z,1.30
2022-08-30T07:12:11.492Z,1.63
2022-08-30T07:14:40.073Z,1.30
2022-08-30T07:17:23.608Z,1.50
2022-08-30T07:19:51.247Z,3.20
2022-08-30T07:22:18.839Z,2.10
2022-08-30T07:24:46.912Z,1.60
2022-08-30T07:27:14.907Z,1.65
2022-08-30T07:29:42.567Z,1.20
2022-08-30T07:32:11.555Z,1.30
2022-08-30T07:34:39.295Z,1.10
2022-08-30T07:37:06.972Z,1.10
2022-08-30T07:39:39.183Z,1.23
2022-08-30T07:42:12.199Z,1.25
2022-08-30T07:44:39.765Z,1.50
2022-08-30T07:47:16.793Z,1.67
2022-08-30T07:49:44.463Z,0.80
2022-08-30T07:52:12.027Z,0.80
2022-08-30T07:54:39.639Z,1.13
2022-08-30T07:57:07.301Z,1.20
2022-08-30T07:59:36.189Z,0.70
2022-08-30T08:02:04.110Z,1.20
2022-08-30T08:04:34.361Z,0.98
2022-08-30T08:07:01.922Z,1.10
2022-08-30T08:09:29.516Z,0.80
2022-08-30T08:11:57.403Z,0.90
2022-08-30T08:14:24.940Z,0.90
2022-08-30T08:16:52.493Z,0.90
2022-08-30T08:19:20.537Z,0.75
2022-08-30T08:21:59.405Z,0.77
2022-08-30T08:24:37.043Z,1.10
2022-08-30T08:27:04.726Z,1.00
2022-08-30T08:29:32.406Z,0.70
2022-08-30T08:32:00.141Z,0.80
2022-08-30T08:34:27.902Z,0.85
2022-08-30T08:36:56.874Z,0.82
2022-08-30T08:39:24.389Z,0.85
2022-08-30T08:41:57.225Z,0.60
2022-08-30T08:44:34.734Z,0.68
2022-08-30T08:47:11.038Z,0.60
2022-08-30T08:49:39.195Z,0.70
2022-08-30T08:52:27.066Z,0.80
2022-08-30T08:54:59.356Z,0.70
2022-08-30T08:57:35.617Z,0.80
2022-08-30T09:00:04.792Z,0.73
2022-08-30T09:02:39.171Z,0.70
2022-08-30T09:05:07.489Z,0.75
2022-08-30T09:07:39.531Z,0.60
2022-08-30T09:10:07.900Z,0.70
2022-08-30T09:12:35.806Z,0.63
2022-08-30T09:15:10.215Z,0.60
2022-08-30T09:17:51.814Z,0.80
2022-08-30T09:20:29.847Z,2.42
2022-08-30T09:22:59.445Z,3.85
2022-08-30T09:25:28.842Z,1.05
2022-08-30T09:28:10.800Z,1.85
2022-08-30T09:30:39.147Z,0.90
2022-08-30T09:33:08.317Z,1.00
2022-08-30T09:35:41.982Z,2.08
2022-08-30T09:38:13.061Z,1.58
2022-08-30T09:40:44.322Z,0.98
2022-08-30T09:43:21.343Z,1.05
2022-08-30T09:45:51.041Z,0.90
2022-08-30T09:48:30.083Z,1.50
2022-08-30T09:51:09.002Z,0.70
2022-08-30T09:53:42.451Z,1.08
2022-08-30T09:56:21.831Z,2.80
2022-08-30T09:59:00.274Z,1.50
2022-08-30T10:01:31.340Z,0.88
2022-08-30T10:04:03.990Z,0.68
2022-08-30T10:06:36.629Z,1.10
2022-08-30T10:09:12.437Z,0.82
2022-08-30T10:11:44.618Z,0.80
2022-08-30T10:14:35.728Z,1.92
2022-08-30T10:17:09.768Z,4.72
2022-08-30T10:19:46.909Z,3.73
2022-08-30T10:22:17.863Z,1.08
2022-08-30T10:24:49.618Z,0.70
2022-08-30T10:27:20.936Z,0.60
2022-08-30T10:29:50.995Z,0.63
2022-08-30T10:32:21.906Z,0.70
2022-08-30T10:34:53.437Z,2.33
2022-08-30T10:37:23.607Z,1.00
2022-08-30T10:39:56.380Z,1.73
2022-08-30T10:42:27.211Z,1.55
2022-08-30T10:45:00.097Z,2.00
2022-08-30T10:47:33.156Z,1.08
2022-08-30T10:50:07.205Z,0.90
2022-08-30T10:52:40.530Z,0.65
2022-08-30T10:55:12.541Z,0.93
2022-08-30T10:57:42.889Z,0.60
2022-08-30T11:00:13.974Z,0.68
2022-08-30T11:03:28.629Z,1.00
2022-08-30T11:06:04.630Z,0.70
2022-08-30T11:08:45.596Z,0.80
2022-08-30T11:11:20.739Z,0.80
2022-08-30T11:13:49.975Z,0.60
2022-08-30T11:16:20.334Z,0.70
2022-08-30T11:18:51.199Z,0.90
2022-08-30T11:21:27.243Z,0.90
2022-08-30T11:24:02.445Z,0.88
2022-08-30T11:26:58.211Z,1.35
2022-08-30T11:29:35.456Z,0.80
2022-08-30T11:32:38.593Z,0.70
2022-08-30T11:35:07.990Z,0.75
2022-08-30T11:37:42.004Z,0.75
2022-08-30T11:40:18.960Z,2.15
2022-08-30T11:42:49.105Z,1.65
2022-08-30T11:45:55.455Z,1.33
2022-08-30T11:48:53.514Z,1.10
2022-08-30T11:51:39.048Z,1.20
2022-08-30T11:54:14.153Z,1.10
2022-08-30T11:56:49.351Z,1.08
2022-08-30T11:59:25.258Z,2.83
2022-08-30T12:01:53.124Z,1.55
2022-08-30T12:04:38.372Z,0.70
2022-08-30T12:07:07.925Z,4.25
2022-08-30T12:10:04.219Z,1.25
2022-08-30T12:12:56.045Z,0.90
2022-08-30T12:15:53.020Z,1.05
2022-08-30T12:18:28.193Z,1.08
2022-08-30T12:21:01.251Z,1.07
2022-08-30T12:23:36.808Z,1.52
2022-08-30T12:26:16.578Z,1.90
2022-08-30T12:28:46.163Z,1.02
2022-08-30T12:31:17.528Z,0.88
2022-08-30T12:33:48.930Z,0.90
2022-08-30T12:36:33.191Z,0.93
2022-08-30T12:39:09.682Z,0.82
2022-08-30T12:41:43.266Z,0.70
2022-08-30T12:44:15.598Z,0.98
2022-08-30T12:46:44.689Z,0.93
2022-08-30T12:49:14.415Z,1.10
2022-08-30T12:51:43.498Z,0.80
2022-08-30T12:54:17.963Z,0.77
2022-08-30T12:56:52.294Z,0.80
2022-08-30T12:59:39.637Z,0.77
2022-08-30T13:02:20.234Z,0.80
2022-08-30T13:04:51.060Z,0.80
2022-08-30T13:07:27.135Z,0.80
2022-08-30T13:10:02.996Z,0.80
2022-08-30T13:12:30.614Z,0.88
2022-08-30T13:15:14.415Z,0.65
2022-08-30T13:17:42.027Z,0.67
2022-08-30T13:20:24.618Z,0.70
2022-08-30T13:23:07.382Z,0.65
2022-08-30T13:25:38.152Z,0.77
2022-08-30T13:28:07.628Z,0.65
2022-08-30T13:30:36.100Z,0.70
2022-08-30T13:33:03.723Z,0.90
2022-08-30T13:35:32.989Z,0.85
2022-08-30T13:38:02.196Z,0.85
2022-08-30T13:40:30.366Z,0.73
2022-08-30T13:42:58.625Z,0.88
2022-08-30T13:45:42.280Z,0.60
2022-08-30T13:48:11.527Z,2.22
2022-08-30T13:50:41.075Z,5.33
2022-08-30T13:53:10.065Z,1.55
2022-08-30T13:55:37.706Z,0.80
2022-08-30T13:58:05.420Z,1.80
2022-08-30T14:00:37.459Z,6.57
2022-08-30T14:03:05.602Z,1.30
2022-08-30T14:06:04.710Z,5.78
2022-08-30T14:11:18.464Z,0.98
2022-08-30T14:16:35.838Z,1.00
2022-08-30T14:19:03.524Z,3.60
2022-08-30T14:21:33.463Z,2.58
2022-08-30T14:24:04.900Z,1.45
2022-08-30T14:26:35.168Z,2.90
2022-08-30T14:29:03.671Z,12.07
2022-08-30T14:31:32.859Z,5.35
2022-08-30T14:34:01.893Z,4.20
2022-08-30T14:36:31.348Z,3.67
2022-08-30T14:38:59.201Z,0.80
2022-08-30T14:41:28.178Z,3.92
2022-08-30T14:43:55.853Z,9.70
2022-08-30T14:46:25.689Z,1.13
2022-08-30T14:48:53.985Z,2.35
2022-08-30T14:51:23.248Z,0.93
2022-08-30T14:53:52.891Z,1.30
2022-08-30T14:56:23.291Z,1.60
2022-08-30T14:59:00.136Z,1.40
2022-08-30T15:01:28.869Z,0.50
2022-08-30T15:03:57.252Z,0.77
2022-08-30T15:06:26.520Z,0.98
2022-08-30T15:08:54.821Z,0.70
2022-08-30T15:11:25.615Z,1.35
2022-08-30T15:13:55.042Z,0.90
2022-08-30T15:16:24.988Z,5.65
2022-08-30T15:18:53.393Z,12.70
2022-08-30T15:21:25.632Z,6.68
2022-08-30T15:23:53.682Z,8.25
2022-08-30T15:26:21.954Z,0.70
2022-08-30T15:28:51.055Z,0.67
2022-08-30T15:31:22.321Z,4.50
2022-08-30T15:33:51.050Z,8.48
2022-08-30T15:36:18.698Z,3.50
2022-08-30T15:38:46.666Z,1.80
2022-08-30T15:41:14.228Z,0.50
2022-08-30T15:43:42.114Z,0.73
2022-08-30T15:46:17.933Z,0.88
2022-08-30T15:48:47.691Z,0.73
2022-08-30T15:51:17.389Z,1.05
2022-08-30T15:53:45.212Z,1.10
2022-08-30T15:56:13.095Z,1.83
2022-08-30T15:58:41.037Z,0.85
2022-08-30T16:01:09.151Z,0.60
2022-08-30T16:03:37.735Z,0.82
2022-08-30T16:06:11.839Z,1.30
2022-08-30T16:08:39.411Z,0.70
2022-08-30T16:11:07.157Z,2.50
2022-08-30T16:13:34.731Z,1.92
2022-08-30T16:16:02.850Z,1.17
2022-08-30T16:18:30.778Z,1.25
2022-08-30T16:21:03.782Z,2.45
2022-08-30T16:23:33.643Z,0.75
2022-08-30T16:26:02.397Z,1.70
2022-08-30T16:28:32.106Z,0.70
2022-08-30T16:30:59.782Z,1.00
2022-08-30T16:33:27.797Z,0.73
2022-08-30T16:35:57.013Z,0.50
2022-08-30T16:38:26.427Z,2.03
2022-08-30T16:40:56.558Z,1.80
2022-08-30T16:43:24.954Z,2.75
2022-08-30T16:45:53.772Z,0.70
2022-08-30T16:48:21.465Z,2.53
2022-08-30T16:50:49.173Z,1.40
2022-08-30T16:53:16.886Z,4.13
2022-08-30T16:55:44.692Z,4.50
2022-08-30T16:58:18.708Z,1.10
2022-08-30T17:00:48.955Z,0.80
2022-08-30T17:03:17.304Z,0.80
2022-08-30T17:05:45.105Z,2.17
2022-08-30T17:08:14.389Z,1.70
2022-08-30T17:10:43.847Z,1.02
2022-08-30T17:13:18.773Z,1.45
2022-08-30T17:15:47.972Z,0.77
2022-08-30T17:18:17.098Z,1.30
2022-08-30T17:20:46.204Z,1.00
2022-08-30T17:23:13.919Z,0.60
2022-08-30T17:25:41.843Z,0.68
2022-08-30T17:28:10.635Z,0.90
2022-08-30T17:30:39.555Z,0.90
2022-08-30T17:33:08.401Z,0.70
2022-08-30T17:35:36.050Z,1.27
2022-08-30T17:38:03.847Z,2.15
2022-08-30T17:40:31.408Z,0.70
2022-08-30T17:42:59.069Z,0.90
2022-08-30T17:45:26.755Z,0.80
2022-08-30T17:47:57.561Z,0.80
2022-08-30T17:50:28.126Z,0.70
2022-08-30T17:52:56.429Z,0.70
2022-08-30T17:55:24.070Z,1.08
2022-08-30T17:57:52.056Z,0.70
2022-08-30T18:00:20.040Z,0.70
2022-08-30T18:02:49.202Z,0.90
2022-08-30T18:05:18.249Z,0.98
2022-08-30T18:07:52.287Z,0.70
2022-08-30T18:10:20.081Z,0.80
2022-08-30T18:12:58.673Z,1.00
2022-08-30T18:15:26.237Z,1.20
2022-08-30T18:17:54.486Z,1.00
2022-08-30T18:20:23.422Z,1.05
2022-08-30T18:22:55.987Z,0.90
2022-08-30T18:25:23.820Z,0.98
2022-08-30T18:27:58.434Z,0.90
2022-08-30T18:30:34.074Z,0.90
2022-08-30T18:33:06.734Z,1.08
2022-08-30T18:35:37.721Z,0.70
2022-08-30T18:38:07.380Z,0.93
2022-08-30T18:40:35.502Z,1.08
2022-08-30T18:43:08.116Z,0.73
2022-08-30T18:45:36.907Z,0.80
2022-08-30T18:48:05.419Z,0.90
2022-08-30T18:50:34.152Z,0.80
2022-08-30T18:53:03.740Z,1.10
2022-08-30T18:55:32.249Z,1.02
2022-08-30T18:58:01.820Z,1.07
2022-08-30T19:00:30.844Z,0.90
2022-08-30T19:02:59.535Z,0.90
2022-08-30T19:05:28.138Z,0.90
2022-08-30T19:07:57.480Z,1.35
2022-08-30T19:10:28.507Z,0.90
2022-08-30T19:12:59.846Z,0.90
2022-08-30T19:15:27.985Z,0.90
2022-08-30T19:17:56.351Z,1.00
2022-08-30T19:20:25.190Z,0.88
2022-08-30T19:23:10.323Z,0.93
2022-08-30T19:25:42.610Z,0.82
2022-08-30T19:28:11.416Z,1.17
2022-08-30T19:30:40.131Z,1.20
2022-08-30T19:33:07.896Z,1.00
2022-08-30T19:35:39.826Z,0.80
2022-08-30T19:38:08.027Z,0.88
2022-08-30T19:40:36.196Z,1.30
2022-08-30T19:43:06.959Z,0.90
2022-08-30T19:45:36.013Z,1.00
2022-08-30T19:48:04.669Z,1.27
2022-08-30T19:50:32.858Z,1.05
2022-08-30T19:53:01.027Z,0.98
2022-08-30T19:55:31.301Z,0.95
2022-08-30T19:57:59.730Z,0.90
2022-08-30T20:00:32.367Z,1.17
2022-08-30T20:03:04.935Z,1.00
2022-08-30T20:05:34.487Z,1.15
2022-08-30T20:08:02.175Z,0.98
2022-08-30T20:10:30.256Z,1.08
2022-08-30T20:12:59.864Z,0.98
2022-08-30T20:15:29.099Z,1.08
2022-08-30T20:18:13.460Z,0.85
2022-08-30T20:20:48.082Z,1.10
2022-08-30T20:23:21.477Z,1.10
2022-08-30T20:25:52.144Z,1.00
2022-08-30T20:28:20.637Z,1.05
2022-08-30T20:30:54.060Z,1.17
2022-08-30T20:33:24.330Z,1.40
2022-08-30T20:35:53.095Z,1.17
2022-08-30T20:38:22.504Z,1.10
2022-08-30T20:40:52.338Z,1.00
2022-08-30T20:43:21.701Z,1.15
2022-08-30T20:45:52.186Z,1.20
2022-08-30T20:48:20.509Z,1.30
2022-08-30T20:50:48.354Z,1.02
2022-08-30T20:53:16.256Z,1.20
2022-08-30T20:55:45.504Z,1.05
2022-08-30T20:58:14.305Z,1.13
2022-08-30T21:00:45.619Z,1.20
2022-08-30T21:03:26.552Z,1.40
2022-08-30T21:05:56.167Z,1.20
2022-08-30T21:08:24.993Z,1.03
2022-08-30T21:10:53.068Z,1.00
2022-08-30T21:13:21.821Z,1.10
2022-08-30T21:15:52.426Z,1.23
2022-08-30T21:18:23.234Z,1.17
2022-08-30T21:20:50.875Z,1.02
2022-08-30T21:23:20.705Z,1.20
2022-08-30T21:25:48.923Z,1.20
2022-08-30T21:28:17.631Z,1.00
2022-08-30T21:30:45.975Z,1.20
2022-08-30T21:33:13.959Z,1.02
2022-08-30T21:36:01.272Z,1.20
2022-08-30T21:38:29.639Z,1.02
2022-08-30T21:40:57.403Z,1.00
2022-08-30T21:43:25.676Z,1.05
2022-08-30T21:45:53.673Z,1.20
2022-08-30T21:48:22.153Z,0.95
2022-08-30T21:50:55.390Z,0.80
2022-08-30T21:53:23.339Z,1.10
2022-08-30T21:55:50.938Z,1.10
2022-08-30T21:58:19.399Z,1.02
2022-08-30T22:00:47.182Z,1.00
2022-08-30T22:03:14.920Z,0.80
2022-08-30T22:05:46.122Z,0.90
2022-08-30T22:08:18.380Z,1.00
2022-08-30T22:10:46.531Z,1.38
2022-08-30T22:13:15.165Z,0.90
2022-08-30T22:15:45.395Z,1.00
2022-08-30T22:18:13.377Z,0.93
2022-08-30T22:20:42.498Z,0.70
2022-08-30T22:23:12.258Z,1.00
2022-08-30T22:25:48.228Z,0.80
2022-08-30T22:28:16.123Z,0.77
2022-08-30T22:30:43.770Z,0.85
2022-08-30T22:33:11.799Z,0.73
2022-08-30T22:35:40.007Z,0.75
2022-08-30T22:38:08.835Z,0.90
2022-08-30T22:40:37.600Z,1.00
2022-08-30T22:43:06.596Z,0.63
2022-08-30T22:45:34.205Z,0.90
2022-08-30T22:48:01.979Z,0.70
2022-08-30T22:50:29.641Z,0.80
2022-08-30T22:52:57.635Z,0.82
2022-08-30T22:55:26.109Z,0.70
2022-08-30T22:57:53.888Z,0.77
2022-08-30T23:00:23.798Z,0.80
2022-08-30T23:02:54.456Z,0.80
2022-08-30T23:05:23.666Z,0.80
2022-08-30T23:07:53.510Z,0.80
2022-08-30T23:10:27.805Z,0.90
2022-08-30T23:13:56.977Z,1.00
2022-08-30T23:16:26.420Z,0.90
2022-08-30T23:18:54.215Z,0.70
2022-08-30T23:21:24.876Z,1.17
2022-08-30T23:24:12.105Z,0.95
2022-08-30T23:26:58.411Z,0.77
2022-08-30T23:29:44.178Z,0.80
2022-08-30T23:32:31.369Z,0.80
2022-08-30T23:35:17.255Z,0.80
2022-08-30T23:38:02.663Z,0.87
2022-08-30T23:40:47.774Z,0.70
2022-08-30T23:43:32.939Z,0.80
2022-08-30T23:46:19.065Z,0.68
2022-08-30T23:49:09.706Z,1.02
2022-08-30T23:51:57.182Z,0.82
2022-08-30T23:54:42.995Z,0.90
2022-08-30T23:57:28.465Z,1.00
